createdAt,value
2019-04-30T00:01:48.507Z,12.63
2019-04-30T00:04:25.279Z,14.80
2019-04-30T00:06:56.917Z,13.87
2019-04-30T00:09:30.338Z,14.30
2019-04-30T00:12:02.645Z,9.97
2019-04-30T00:14:38.622Z,11.30
2019-04-30T00:17:10.753Z,12.40
2019-04-30T00:19:42.600Z,17.40
2019-04-30T00:22:15.821Z,16.13
2019-04-30T00:24:50.027Z,16.47
2019-04-30T00:27:26.367Z,16.40
2019-04-30T00:29:55.871Z,15.47
2019-04-30T00:32:28.272Z,19.27
2019-04-30T00:35:00.347Z,19.60
2019-04-30T00:37:32.390Z,22.40
2019-04-30T00:40:05.587Z,19.03
2019-04-30T00:42:38.078Z,19.23
2019-04-30T00:45:12.207Z,20.03
2019-04-30T00:47:47.790Z,18.43
2019-04-30T00:50:18.314Z,22.73
2019-04-30T00:52:50.742Z,16.20
2019-04-30T00:55:24.869Z,18.23
2019-04-30T00:57:57.006Z,21.83
2019-04-30T01:00:30.388Z,25.30
2019-04-30T01:03:11.065Z,23.20
2019-04-30T01:05:46.464Z,23.37
2019-04-30T01:08:21.161Z,19.70
2019-04-30T01:10:51.036Z,20.77
2019-04-30T01:13:23.250Z,23.87
2019-04-30T01:15:55.330Z,20.07
2019-04-30T01:18:28.524Z,19.57
2019-04-30T01:21:02.977Z,16.40
2019-04-30T01:23:43.101Z,17.27
2019-04-30T01:26:11.335Z,26.03
2019-04-30T01:28:43.479Z,20.87
2019-04-30T01:31:15.587Z,18.17
2019-04-30T01:33:48.917Z,23.57
2019-04-30T01:36:21.497Z,24.00
2019-04-30T01:38:53.612Z,22.77
2019-04-30T01:41:27.563Z,21.33
2019-04-30T01:44:03.764Z,18.03
2019-04-30T01:46:33.643Z,22.03
2019-04-30T01:49:06.204Z,21.00
2019-04-30T01:51:38.682Z,26.53
2019-04-30T01:54:13.752Z,21.10
2019-04-30T01:56:55.484Z,16.83
2019-04-30T01:59:33.448Z,21.57
2019-04-30T02:02:06.084Z,22.00
2019-04-30T02:04:39.346Z,17.80
2019-04-30T02:07:11.430Z,20.83
2019-04-30T02:09:43.550Z,23.77
2019-04-30T02:12:15.594Z,23.00
2019-04-30T02:14:49.761Z,20.77
2019-04-30T02:17:22.309Z,21.10
2019-04-30T02:19:56.841Z,19.17
2019-04-30T02:22:30.927Z,24.87
2019-04-30T02:25:04.684Z,24.37
2019-04-30T02:27:36.820Z,25.80
2019-04-30T02:30:11.070Z,25.67
2019-04-30T02:32:43.689Z,26.27
2019-04-30T02:35:33.392Z,23.57
2019-04-30T02:38:16.193Z,22.50
2019-04-30T02:40:49.902Z,25.80
2019-04-30T02:43:25.100Z,24.93
2019-04-30T02:46:00.067Z,21.73
2019-04-30T02:48:34.340Z,22.87
2019-04-30T02:51:10.209Z,24.53
2019-04-30T02:54:24.153Z,25.97
2019-04-30T02:57:11.577Z,23.57
2019-04-30T03:00:01.789Z,24.60
2019-04-30T03:02:34.354Z,23.47
2019-04-30T03:05:12.947Z,25.43
2019-04-30T03:07:42.804Z,25.73
2019-04-30T03:10:15.084Z,25.57
2019-04-30T03:12:49.696Z,28.23
2019-04-30T03:15:22.817Z,25.57
2019-04-30T03:18:12.601Z,22.20
2019-04-30T03:21:09.912Z,25.93
2019-04-30T03:23:42.018Z,30.63
2019-04-30T03:26:14.085Z,24.70
2019-04-30T03:28:46.144Z,30.07
2019-04-30T03:31:22.003Z,27.10
2019-04-30T03:33:52.959Z,29.43
2019-04-30T03:36:25.470Z,24.97
2019-04-30T03:39:00.022Z,25.40
2019-04-30T03:41:33.439Z,26.30
2019-04-30T03:44:17.440Z,22.43
2019-04-30T03:46:40.376Z,24.73
2019-04-30T03:49:13.441Z,26.97
2019-04-30T03:51:45.705Z,25.23
2019-04-30T03:54:19.259Z,28.70
2019-04-30T03:56:53.247Z,26.47
2019-04-30T03:59:25.359Z,26.33
2019-04-30T04:02:20.786Z,21.03
2019-04-30T04:05:10.254Z,23.13
2019-04-30T04:08:00.214Z,22.77
2019-04-30T04:10:40.408Z,24.63
2019-04-30T04:13:13.036Z,24.77
2019-04-30T04:15:45.669Z,24.70
2019-04-30T04:18:20.044Z,23.40
2019-04-30T04:21:07.044Z,22.53
2019-04-30T04:23:25.317Z,18.87
2019-04-30T04:25:59.711Z,17.43
2019-04-30T04:28:31.370Z,21.30
2019-04-30T04:31:03.498Z,16.77
2019-04-30T04:33:35.889Z,15.17
2019-04-30T04:36:09.175Z,15.67
2019-04-30T04:38:41.725Z,15.43
2019-04-30T04:41:13.741Z,13.80
2019-04-30T04:43:46.076Z,14.77
2019-04-30T04:46:20.545Z,15.67
2019-04-30T04:48:52.526Z,16.30
2019-04-30T04:51:36.792Z,12.73
2019-04-30T04:54:00.083Z,14.70
2019-04-30T04:56:32.181Z,15.60
2019-04-30T04:59:04.230Z,14.30
2019-04-30T05:01:36.202Z,13.87
2019-04-30T05:04:09.240Z,14.20
2019-04-30T05:06:41.769Z,12.57
2019-04-30T05:09:13.800Z,15.73
2019-04-30T05:11:45.925Z,18.73
2019-04-30T05:14:18.973Z,15.07
2019-04-30T05:16:51.533Z,15.77
2019-04-30T05:19:24.458Z,13.23
2019-04-30T05:21:56.573Z,14.83
2019-04-30T05:24:28.892Z,18.07
2019-04-30T05:27:01.420Z,15.53
2019-04-30T05:29:33.746Z,16.73
2019-04-30T05:32:06.148Z,15.53
2019-04-30T05:34:38.564Z,15.40
2019-04-30T05:37:10.942Z,15.27
2019-04-30T05:39:42.859Z,13.70
2019-04-30T05:42:15.131Z,11.07
2019-04-30T05:44:47.081Z,12.57
2019-04-30T05:47:19.741Z,13.23
2019-04-30T05:49:52.132Z,13.90
2019-04-30T05:52:24.084Z,15.53
2019-04-30T05:54:56.248Z,14.03
2019-04-30T05:57:29.425Z,14.87
2019-04-30T06:00:01.587Z,16.50
2019-04-30T06:02:34.286Z,11.90
2019-04-30T06:05:08.623Z,11.80
2019-04-30T06:07:41.514Z,13.33
2019-04-30T06:10:20.267Z,14.70
2019-04-30T06:12:59.660Z,13.53
2019-04-30T06:15:45.847Z,12.90
2019-04-30T06:18:18.547Z,13.73
2019-04-30T06:20:51.758Z,14.23
2019-04-30T06:23:24.394Z,13.33
2019-04-30T06:26:00.624Z,13.40
2019-04-30T06:28:31.978Z,16.87
2019-04-30T06:31:04.547Z,11.00
2019-04-30T06:33:38.875Z,12.40
2019-04-30T06:36:12.620Z,11.93
2019-04-30T06:38:45.056Z,12.33
2019-04-30T06:41:17.127Z,12.63
2019-04-30T06:43:50.333Z,12.63
2019-04-30T06:46:23.030Z,14.97
2019-04-30T06:48:55.366Z,10.37
2019-04-30T06:51:30.557Z,13.20
2019-04-30T06:54:01.589Z,11.70
2019-04-30T06:56:34.093Z,12.73
2019-04-30T06:59:06.244Z,15.73
2019-04-30T07:01:38.871Z,11.10
2019-04-30T07:04:11.243Z,9.87
2019-04-30T07:06:45.127Z,9.77
2019-04-30T07:09:43.640Z,14.30
2019-04-30T07:12:29.810Z,9.63
2019-04-30T07:15:00.413Z,13.97
2019-04-30T07:17:33.136Z,12.83
2019-04-30T07:20:06.188Z,9.43
2019-04-30T07:25:12.625Z,11.33
2019-04-30T07:27:44.701Z,10.87
2019-04-30T07:30:16.846Z,12.60
2019-04-30T07:32:49.670Z,15.67
2019-04-30T07:35:23.215Z,13.20
2019-04-30T07:38:00.701Z,12.70
2019-04-30T07:40:29.768Z,10.63
2019-04-30T07:43:02.500Z,11.93
2019-04-30T07:45:34.616Z,11.60
2019-04-30T07:48:09.118Z,10.93
2019-04-30T07:50:41.872Z,13.33
2019-04-30T07:53:15.131Z,15.37
2019-04-30T07:55:49.428Z,13.70
2019-04-30T07:58:21.598Z,14.10
2019-04-30T08:00:56.172Z,13.17
2019-04-30T08:03:40.859Z,14.10
2019-04-30T08:06:14.341Z,12.17
2019-04-30T08:08:46.475Z,15.03
2019-04-30T08:09:36.815Z,11.20
2019-04-30T08:11:25.734Z,12.00
2019-04-30T08:13:53.185Z,12.40
2019-04-30T08:16:25.308Z,11.63
2019-04-30T08:18:59.142Z,12.63
2019-04-30T08:21:31.344Z,14.37
2019-04-30T08:24:04.272Z,12.77
2019-04-30T08:26:36.422Z,15.90
2019-04-30T08:29:09.598Z,13.27
2019-04-30T08:31:41.810Z,12.27
2019-04-30T08:34:14.317Z,13.67
2019-04-30T08:36:48.929Z,12.53
2019-04-30T08:39:20.978Z,12.57
2019-04-30T08:41:53.525Z,12.37
2019-04-30T08:44:26.032Z,12.70
2019-04-30T08:46:59.067Z,15.03
2019-04-30T08:49:31.799Z,11.77
2019-04-30T08:52:04.835Z,12.40
2019-04-30T08:54:36.930Z,11.83
2019-04-30T08:57:09.994Z,13.17
2019-04-30T08:59:42.428Z,11.93
2019-04-30T09:02:16.540Z,14.37
2019-04-30T09:04:52.242Z,12.97
2019-04-30T09:07:24.353Z,12.47
2019-04-30T09:09:58.504Z,14.13
2019-04-30T09:12:31.367Z,10.63
2019-04-30T09:15:03.551Z,8.60
2019-04-30T09:17:35.979Z,11.83
2019-04-30T09:20:09.125Z,10.87
2019-04-30T09:22:41.628Z,10.73
2019-04-30T09:25:13.835Z,11.73
2019-04-30T09:27:45.965Z,12.30
2019-04-30T09:30:19.184Z,13.17
2019-04-30T09:32:51.303Z,10.83
2019-04-30T09:35:23.396Z,10.73
2019-04-30T09:38:01.163Z,13.27
2019-04-30T09:40:32.314Z,12.03
2019-04-30T09:43:03.547Z,11.30
2019-04-30T09:45:35.639Z,12.30
2019-04-30T09:48:09.381Z,12.07
2019-04-30T09:50:41.694Z,10.53
2019-04-30T09:53:14.409Z,9.57
2019-04-30T09:55:46.522Z,12.87
2019-04-30T09:58:21.123Z,10.73
2019-04-30T10:00:53.106Z,10.20
2019-04-30T10:03:25.902Z,9.57
2019-04-30T10:05:59.076Z,9.23
2019-04-30T10:08:32.003Z,10.13
2019-04-30T10:11:35.646Z,8.60
2019-04-30T10:14:08.379Z,14.03
2019-04-30T10:16:53.453Z,10.67
2019-04-30T10:19:25.493Z,9.50
2019-04-30T10:21:58.971Z,10.23
2019-04-30T10:24:32.140Z,9.93
2019-04-30T10:27:07.166Z,9.40
2019-04-30T10:29:39.521Z,9.40
2019-04-30T10:32:13.691Z,10.43
2019-04-30T10:34:46.168Z,11.17
2019-04-30T10:37:18.977Z,12.07
2019-04-30T10:39:52.478Z,12.10
2019-04-30T10:42:24.668Z,14.03
2019-04-30T10:45:00.121Z,11.67
2019-04-30T10:47:32.714Z,11.77
2019-04-30T10:50:06.009Z,10.13
2019-04-30T10:52:39.296Z,10.53
2019-04-30T10:55:12.066Z,10.40
2019-04-30T10:57:44.567Z,8.97
2019-04-30T11:00:18.681Z,8.27
2019-04-30T11:02:51.182Z,10.93
2019-04-30T11:05:23.616Z,8.33
2019-04-30T11:07:55.693Z,8.63
2019-04-30T11:10:28.667Z,11.30
2019-04-30T11:13:01.172Z,10.67
2019-04-30T11:15:33.412Z,10.07
2019-04-30T11:18:06.540Z,9.30
2019-04-30T11:20:39.717Z,7.83
2019-04-30T11:23:14.534Z,7.43
2019-04-30T11:25:46.722Z,8.43
2019-04-30T11:28:20.064Z,8.97
2019-04-30T11:30:54.247Z,9.07
2019-04-30T11:33:26.494Z,9.37
2019-04-30T11:36:03.069Z,10.83
2019-04-30T11:38:35.118Z,8.13
2019-04-30T11:41:08.674Z,10.13
2019-04-30T11:43:41.166Z,8.57
2019-04-30T11:47:25.203Z,9.03
2019-04-30T11:49:57.517Z,7.13
2019-04-30T11:52:29.670Z,6.13
2019-04-30T11:55:02.567Z,7.97
2019-04-30T11:57:34.850Z,5.83
2019-04-30T12:00:12.825Z,8.57
2019-04-30T12:02:44.902Z,7.53
2019-04-30T12:05:20.787Z,7.93
2019-04-30T12:08:11.707Z,6.07
2019-04-30T12:10:53.178Z,8.50
2019-04-30T12:13:34.757Z,7.43
2019-04-30T12:16:08.691Z,7.83
2019-04-30T12:18:40.782Z,7.97
2019-04-30T12:21:13.647Z,7.60
2019-04-30T12:23:45.645Z,6.10
2019-04-30T12:26:19.064Z,6.97
2019-04-30T12:28:51.630Z,8.40
2019-04-30T12:31:24.173Z,4.30
2019-04-30T12:33:56.177Z,6.67
2019-04-30T12:36:28.972Z,6.00
2019-04-30T12:39:01.667Z,5.77
2019-04-30T12:41:34.111Z,5.07
2019-04-30T12:44:06.287Z,5.33
2019-04-30T12:46:38.846Z,5.03
2019-04-30T12:49:14.343Z,5.07
2019-04-30T12:52:00.272Z,6.00
2019-04-30T12:54:51.464Z,5.00
2019-04-30T12:57:33.640Z,9.43
2019-04-30T13:00:09.490Z,4.63
2019-04-30T13:02:42.605Z,9.30
2019-04-30T13:05:15.557Z,5.97
2019-04-30T13:07:50.065Z,4.60
2019-04-30T13:10:23.395Z,5.37
2019-04-30T13:12:56.755Z,6.07
2019-04-30T13:15:29.928Z,5.43
2019-04-30T13:18:02.473Z,4.93
2019-04-30T13:20:34.941Z,4.80
2019-04-30T13:23:08.756Z,6.17
2019-04-30T13:25:51.069Z,6.27
2019-04-30T13:28:19.810Z,5.10
2019-04-30T13:30:55.374Z,4.87
2019-04-30T13:33:33.423Z,5.57
2019-04-30T13:36:06.405Z,6.17
2019-04-30T13:38:52.838Z,4.47
2019-04-30T13:41:44.537Z,5.50
2019-04-30T13:44:20.740Z,5.93
2019-04-30T13:46:53.248Z,5.20
2019-04-30T13:49:29.852Z,5.00
2019-04-30T13:51:59.921Z,4.43
2019-04-30T13:54:32.114Z,5.27
2019-04-30T13:57:04.165Z,4.27
2019-04-30T13:59:36.282Z,6.37
2019-04-30T14:02:08.819Z,3.90
2019-04-30T14:04:47.870Z,5.97
2019-04-30T14:07:35.035Z,6.63
2019-04-30T14:10:10.126Z,3.57
2019-04-30T14:12:48.286Z,4.63
2019-04-30T14:15:22.338Z,4.73
2019-04-30T14:17:55.359Z,4.00
2019-04-30T14:20:27.915Z,4.27
2019-04-30T14:22:59.988Z,6.27
2019-04-30T14:25:32.859Z,4.30
2019-04-30T14:28:05.070Z,8.33
2019-04-30T14:30:39.298Z,7.07
2019-04-30T14:33:23.168Z,6.10
2019-04-30T14:35:46.852Z,4.40
2019-04-30T14:38:19.280Z,5.20
2019-04-30T14:40:52.064Z,3.90
2019-04-30T14:43:31.701Z,4.47
2019-04-30T14:46:25.672Z,5.50
2019-04-30T14:49:06.452Z,5.47
2019-04-30T14:51:39.840Z,4.73
2019-04-30T14:54:19.977Z,4.83
2019-04-30T14:57:18.132Z,3.30
2019-04-30T15:00:11.745Z,4.97
2019-04-30T15:02:50.049Z,5.23
2019-04-30T15:05:22.354Z,5.13
2019-04-30T15:07:54.570Z,4.33
2019-04-30T15:10:28.066Z,3.20
2019-04-30T15:13:02.594Z,3.67
2019-04-30T15:15:34.540Z,3.70
2019-04-30T15:18:06.873Z,3.13
2019-04-30T15:20:39.959Z,3.43
2019-04-30T15:23:30.013Z,3.70
2019-04-30T15:26:02.453Z,2.30
2019-04-30T15:28:35.005Z,2.47
2019-04-30T15:31:08.545Z,2.37
2019-04-30T15:33:48.099Z,2.00
2019-04-30T15:36:20.916Z,1.87
2019-04-30T15:39:17.155Z,4.13
2019-04-30T15:41:49.575Z,3.87
2019-04-30T15:44:22.651Z,2.73
2019-04-30T15:46:55.296Z,2.07
2019-04-30T15:49:27.932Z,2.17
2019-04-30T15:52:00.889Z,1.97
2019-04-30T15:54:33.039Z,1.90
2019-04-30T15:57:06.093Z,4.63
2019-04-30T15:59:42.588Z,1.90
2019-04-30T16:02:34.084Z,2.60
2019-04-30T16:05:15.392Z,1.70
2019-04-30T16:08:09.041Z,2.43
2019-04-30T16:11:08.099Z,2.33
2019-04-30T16:14:04.816Z,1.80
2019-04-30T16:16:39.015Z,2.27
2019-04-30T16:19:12.062Z,1.67
2019-04-30T16:21:44.288Z,1.77
2019-04-30T16:24:18.630Z,2.07
2019-04-30T16:26:54.717Z,2.07
2019-04-30T16:29:26.804Z,2.03
2019-04-30T16:31:59.342Z,1.73
2019-04-30T16:34:31.475Z,1.47
2019-04-30T16:37:04.088Z,2.73
2019-04-30T16:39:36.213Z,1.50
2019-04-30T16:42:09.168Z,1.83
2019-04-30T16:44:42.007Z,2.90
2019-04-30T16:47:16.808Z,2.47
2019-04-30T16:49:49.273Z,1.73
2019-04-30T16:52:21.973Z,3.47
2019-04-30T16:54:54.093Z,1.67
2019-04-30T16:57:30.141Z,1.93
2019-04-30T17:00:00.634Z,1.53
2019-04-30T17:02:33.484Z,2.27
2019-04-30T17:05:25.538Z,3.10
2019-04-30T17:08:05.947Z,2.30
2019-04-30T17:10:56.741Z,1.50
2019-04-30T17:13:41.181Z,0.70
2019-04-30T17:16:19.541Z,1.27
2019-04-30T17:18:56.370Z,1.23
2019-04-30T17:21:30.832Z,2.10
2019-04-30T17:24:03.378Z,1.30
2019-04-30T17:26:35.873Z,1.20
2019-04-30T17:29:09.582Z,1.10
2019-04-30T17:31:42.006Z,1.23
2019-04-30T17:34:14.539Z,0.70
2019-04-30T17:36:46.619Z,0.93
2019-04-30T17:39:20.663Z,0.97
2019-04-30T17:41:53.048Z,1.10
2019-04-30T17:44:26.017Z,1.57
2019-04-30T17:47:00.118Z,1.67
2019-04-30T17:49:34.029Z,1.30
2019-04-30T17:52:06.561Z,0.90
2019-04-30T17:54:39.187Z,0.70
2019-04-30T17:57:11.871Z,1.10
2019-04-30T17:59:44.415Z,1.10
2019-04-30T18:02:19.476Z,0.80
2019-04-30T18:04:52.374Z,1.80
2019-04-30T18:07:24.484Z,1.30
2019-04-30T18:09:58.609Z,2.97
2019-04-30T18:12:30.818Z,4.00
2019-04-30T18:15:03.464Z,3.13
2019-04-30T18:17:35.993Z,3.03
2019-04-30T18:20:21.472Z,2.93
2019-04-30T18:23:00.970Z,2.60
2019-04-30T18:25:41.142Z,2.50
2019-04-30T18:28:14.073Z,1.70
2019-04-30T18:30:46.665Z,2.10
2019-04-30T18:33:20.463Z,2.30
2019-04-30T18:35:52.516Z,1.50
2019-04-30T18:38:24.519Z,1.80
2019-04-30T18:40:59.415Z,1.00
2019-04-30T18:43:31.614Z,1.20
2019-04-30T18:46:03.834Z,1.03
2019-04-30T18:48:35.907Z,1.13
2019-04-30T18:51:23.649Z,2.87
2019-04-30T18:53:42.277Z,1.90
2019-04-30T18:56:15.105Z,1.60
2019-04-30T18:58:48.649Z,2.73
2019-04-30T19:01:21.548Z,1.80
2019-04-30T19:03:53.675Z,2.67
2019-04-30T19:06:27.018Z,1.47
2019-04-30T19:09:19.647Z,1.63
2019-04-30T19:11:59.357Z,1.43
2019-04-30T19:14:53.908Z,1.87
2019-04-30T19:17:49.458Z,1.73
2019-04-30T19:20:24.495Z,2.27
2019-04-30T19:22:56.717Z,2.03
2019-04-30T19:25:29.980Z,3.27
2019-04-30T19:28:11.366Z,1.77
2019-04-30T19:30:38.890Z,1.50
2019-04-30T19:33:11.525Z,2.53
2019-04-30T19:35:44.022Z,2.10
2019-04-30T19:38:16.880Z,3.23
2019-04-30T19:40:49.471Z,3.90
2019-04-30T19:43:22.360Z,3.17
2019-04-30T19:45:54.758Z,2.77
2019-04-30T19:48:27.459Z,2.13
2019-04-30T19:51:00.451Z,2.30
2019-04-30T19:53:32.824Z,2.37
2019-04-30T19:56:05.202Z,2.47
2019-04-30T19:58:51.416Z,2.37
2019-04-30T20:01:11.106Z,3.37
2019-04-30T20:03:43.054Z,2.90
2019-04-30T20:06:15.082Z,1.97
2019-04-30T20:08:47.364Z,2.67
2019-04-30T20:11:19.620Z,3.73
2019-04-30T20:13:52.325Z,3.00
2019-04-30T20:16:24.243Z,3.87
2019-04-30T20:18:56.957Z,4.53
2019-04-30T20:21:45.371Z,3.10
2019-04-30T20:24:03.302Z,3.40
2019-04-30T20:26:37.771Z,3.87
2019-04-30T20:29:11.381Z,3.37
2019-04-30T20:31:46.211Z,5.80
2019-04-30T20:34:19.157Z,3.40
2019-04-30T20:36:52.059Z,3.13
2019-04-30T20:39:30.535Z,2.63
2019-04-30T20:42:02.782Z,2.93
2019-04-30T20:44:35.045Z,3.23
2019-04-30T20:47:08.949Z,2.43
2019-04-30T20:49:40.951Z,3.63
2019-04-30T20:52:12.970Z,2.97
2019-04-30T20:54:44.922Z,3.43
2019-04-30T20:57:17.277Z,1.97
2019-04-30T20:59:49.486Z,2.10
2019-04-30T21:02:21.445Z,2.40
2019-04-30T21:04:54.594Z,2.90
2019-04-30T21:07:27.430Z,3.00
2019-04-30T21:10:00.429Z,3.07
2019-04-30T21:12:32.742Z,2.30
2019-04-30T21:15:07.221Z,2.10
2019-04-30T21:17:41.281Z,1.80
2019-04-30T21:20:14.401Z,2.57
2019-04-30T21:22:46.771Z,2.10
2019-04-30T21:25:19.018Z,3.13
2019-04-30T21:27:50.942Z,3.27
2019-04-30T21:30:23.759Z,2.33
2019-04-30T21:33:06.637Z,2.43
2019-04-30T21:36:03.664Z,3.47
2019-04-30T21:38:36.434Z,4.73
2019-04-30T21:41:09.974Z,3.70
2019-04-30T21:43:43.023Z,3.83
2019-04-30T21:46:15.300Z,5.27
2019-04-30T21:48:48.823Z,4.83
2019-04-30T21:51:21.105Z,3.77
2019-04-30T21:53:54.197Z,3.90
2019-04-30T21:56:26.261Z,2.80
2019-04-30T21:58:58.553Z,3.53
2019-04-30T22:01:30.566Z,3.93
2019-04-30T22:04:02.516Z,3.90
2019-04-30T22:06:34.468Z,5.00
2019-04-30T22:09:09.742Z,4.27
2019-04-30T22:11:41.777Z,4.70
2019-04-30T22:14:14.057Z,5.30
2019-04-30T22:16:46.008Z,5.53
2019-04-30T22:19:20.784Z,5.87
2019-04-30T22:21:53.060Z,4.53
2019-04-30T22:24:25.504Z,4.33
2019-04-30T22:26:57.899Z,3.07
2019-04-30T22:29:39.157Z,4.97
2019-04-30T22:32:04.443Z,3.13
2019-04-30T22:34:36.818Z,4.77
2019-04-30T22:37:09.202Z,6.23
2019-04-30T22:39:47.114Z,4.77
2019-04-30T22:42:44.107Z,3.33
2019-04-30T22:45:34.390Z,3.63
2019-04-30T22:48:06.451Z,5.17
2019-04-30T22:50:38.474Z,4.73
2019-04-30T22:53:10.460Z,4.80
2019-04-30T22:55:42.459Z,5.50
2019-04-30T22:58:14.968Z,4.20
2019-04-30T23:00:48.027Z,3.73
2019-04-30T23:03:33.436Z,5.27
2019-04-30T23:06:05.626Z,3.43
2019-04-30T23:08:38.878Z,4.87
2019-04-30T23:11:11.216Z,4.10
2019-04-30T23:13:43.473Z,3.50
2019-04-30T23:16:16.339Z,3.83
2019-04-30T23:18:48.267Z,4.77
2019-04-30T23:21:20.222Z,5.83
2019-04-30T23:23:52.603Z,4.70
2019-04-30T23:26:24.556Z,4.07
2019-04-30T23:28:56.938Z,3.20
2019-04-30T23:31:29.532Z,3.33
2019-04-30T23:34:02.507Z,3.43
2019-04-30T23:36:34.770Z,4.90
2019-04-30T23:39:07.984Z,4.03
2019-04-30T23:41:44.040Z,3.97
2019-04-30T23:44:15.986Z,5.00
2019-04-30T23:46:47.941Z,5.43
2019-04-30T23:49:19.888Z,5.07
2019-04-30T23:51:51.828Z,3.37
2019-04-30T23:54:24.524Z,3.17
2019-04-30T23:56:56.919Z,5.53
2019-04-30T23:59:29.112Z,3.33
